Time;durP1;ratioP1;P1;durP2;ratioP2;P2;SDS_P1;SDS_P2;PMS_P1;PMS_P2;Temp;Humidity;BMP_temperature;BMP_pressure;BME280_temperature;BME280_humidity;BME280_pressure;Samples;Min_cycle;Max_cycle;Signal;HPM_P1;HPM_P2
2023/02/06 00:00:41;;;;;;;2.15;0.60;;;3.20;90.70;;;;;;6048248;23;20011;-74
2023/02/06 00:03:07;;;;;;;2.20;0.55;;;3.20;90.80;;;;;;6175563;23;20017;-75
2023/02/06 00:05:33;;;;;;;0.55;0.30;;;3.20;90.80;;;;;;6166232;23;20246;-74
2023/02/06 00:07:59;;;;;;;1.85;0.60;;;3.20;90.80;;;;;;6146282;23;20109;-75
2023/02/06 00:10:26;;;;;;;1.08;0.52;;;3.10;90.80;;;;;;6139603;23;20457;-75
2023/02/06 00:12:51;;;;;;;2.38;0.50;;;3.10;90.80;;;;;;6139164;23;20357;-75
2023/02/06 00:15:17;;;;;;;1.75;0.30;;;3.10;90.80;;;;;;6164200;23;20012;-74
2023/02/06 00:17:43;;;;;;;0.50;0.30;;;3.10;90.80;;;;;;6170510;23;20013;-75
2023/02/06 00:20:10;;;;;;;1.88;0.60;;;3.10;90.90;;;;;;6136425;23;20072;-75
2023/02/06 00:22:36;;;;;;;1.52;0.35;;;3.00;90.80;;;;;;6139676;23;20095;-74
2023/02/06 00:25:02;;;;;;;1.48;0.40;;;3.00;90.90;;;;;;6235164;23;20087;-73
2023/02/06 00:27:28;;;;;;;1.40;0.45;;;3.10;90.90;;;;;;6202848;23;20020;-74
2023/02/06 00:29:54;;;;;;;3.40;0.65;;;3.10;90.90;;;;;;6221481;23;20095;-74
2023/02/06 00:32:19;;;;;;;0.43;0.38;;;3.00;90.90;;;;;;6171114;22;20012;-75
2023/02/06 00:34:45;;;;;;;0.93;0.45;;;3.00;90.90;;;;;;6203524;23;20012;-76
2023/02/06 00:37:13;;;;;;;2.88;0.60;;;3.00;90.90;;;;;;6207807;22;20012;-76
2023/02/06 00:39:41;;;;;;;1.42;0.40;;;2.90;90.90;;;;;;6208710;23;20009;-75
2023/02/06 00:42:10;;;;;;;0.60;0.30;;;2.90;90.90;;;;;;6212251;23;20031;-77
2023/02/06 00:44:36;;;;;;;0.75;0.40;;;2.90;90.90;;;;;;6204951;23;20012;-75
2023/02/06 00:47:05;;;;;;;1.83;0.32;;;2.90;90.90;;;;;;6207947;23;20459;-75
2023/02/06 00:49:36;;;;;;;2.25;0.60;;;2.90;91.00;;;;;;6234540;23;20012;-75
2023/02/06 00:52:04;;;;;;;1.13;0.40;;;2.90;91.00;;;;;;6210496;23;20455;-74
2023/02/06 00:54:30;;;;;;;0.35;0.22;;;2.90;91.00;;;;;;6229299;23;20118;-74
2023/02/06 00:56:56;;;;;;;0.38;0.20;;;2.90;91.00;;;;;;6203771;23;20459;-74
2023/02/06 00:59:22;;;;;;;0.70;0.35;;;2.90;91.00;;;;;;6232313;23;20012;-75
2023/02/06 01:01:48;;;;;;;0.15;0.10;;;2.80;91.00;;;;;;6186519;23;20058;-75
2023/02/06 01:04:13;;;;;;;0.93;0.35;;;2.80;91.00;;;;;;6225243;23;20096;-74
2023/02/06 01:06:39;;;;;;;0.47;0.40;;;2.80;91.10;;;;;;6255377;23;20425;-75
2023/02/06 01:09:05;;;;;;;1.85;0.40;;;2.80;91.00;;;;;;6180589;23;20008;-75
2023/02/06 01:11:30;;;;;;;0.47;0.25;;;2.70;91.00;;;;;;6232171;23;20015;-74
2023/02/06 01:13:56;;;;;;;0.50;0.20;;;2.70;91.00;;;;;;6172342;23;20391;-74
2023/02/06 01:16:24;;;;;;;0.73;0.17;;;2.80;91.10;;;;;;6173412;23;20014;-75
2023/02/06 01:18:50;;;;;;;0.20;0.20;;;2.70;91.10;;;;;;6226187;23;20004;-75
2023/02/06 01:21:19;;;;;;;0.43;0.30;;;2.60;91.10;;;;;;6176217;22;20014;-74
2023/02/06 01:23:47;;;;;;;0.47;0.25;;;2.60;91.10;;;;;;6254484;23;20011;-75
2023/02/06 01:26:15;;;;;;;0.45;0.22;;;2.60;91.20;;;;;;6199842;23;20012;-75
2023/02/06 01:28:43;;;;;;;0.55;0.28;;;2.60;91.20;;;;;;6196661;23;20033;-73
2023/02/06 01:31:20;;;;;;;0.47;0.30;;;2.70;91.20;;;;;;6217136;23;20009;-74
2023/02/06 01:33:48;;;;;;;0.52;0.30;;;2.60;91.20;;;;;;6243110;23;20018;-74
2023/02/06 01:36:14;;;;;;;0.85;0.30;;;2.60;91.20;;;;;;6220386;23;20016;-74
2023/02/06 01:38:40;;;;;;;0.47;0.20;;;2.40;91.20;;;;;;6194958;23;20008;-74
2023/02/06 01:41:07;;;;;;;0.40;0.20;;;2.60;91.20;;;;;;6194569;23;20012;-74
2023/02/06 01:43:37;;;;;;;0.45;0.30;;;2.60;91.20;;;;;;6219825;23;20015;-73
2023/02/06 01:46:03;;;;;;;0.40;0.30;;;2.60;91.20;;;;;;6250113;22;20016;-74
2023/02/06 01:48:49;;;;;;;1.50;0.40;;;2.70;91.20;;;;;;6204156;23;20098;-75
2023/02/06 01:51:18;;;;;;;2.67;0.60;;;2.60;91.10;;;;;;6185741;23;20011;-75
2023/02/06 01:53:49;;;;;;;1.95;0.30;;;2.70;91.10;;;;;;6183055;23;20080;-75
2023/02/06 01:56:18;;;;;;;1.13;0.20;;;2.70;91.10;;;;;;6219571;23;20012;-75
2023/02/06 01:58:48;;;;;;;0.98;0.43;;;2.80;91.10;;;;;;6213191;23;20012;-75
2023/02/06 02:01:14;;;;;;;0.73;0.40;;;2.70;91.10;;;;;;6250037;22;20004;-74
2023/02/06 02:03:43;;;;;;;2.55;0.50;;;2.80;91.10;;;;;;6230191;23;20011;-74
2023/02/06 02:06:13;;;;;;;0.30;0.20;;;2.80;91.00;;;;;;6251397;23;20000;-74
2023/02/06 02:08:42;;;;;;;0.32;0.25;;;2.80;91.00;;;;;;6198886;23;20019;-74
2023/02/06 02:11:13;;;;;;;0.45;0.30;;;2.80;91.00;;;;;;6224523;23;20012;-74
2023/02/06 02:13:39;;;;;;;0.30;0.20;;;2.70;91.00;;;;;;6250813;23;20421;-74
2023/02/06 02:16:16;;;;;;;0.55;0.20;;;2.80;91.00;;;;;;6197030;23;20008;-73
2023/02/06 02:19:19;;;;;;;0.57;0.20;;;2.90;91.00;;;;;;6250493;22;20035;-74
2023/02/06 02:22:17;;;;;;;0.38;0.30;;;2.90;91.00;;;;;;6205729;23;20004;-74
2023/02/06 02:25:09;;;;;;;0.60;0.28;;;2.90;91.00;;;;;;6223103;23;20019;-74
2023/02/06 02:28:14;;;;;;;1.33;0.30;;;2.90;90.90;;;;;;6222641;23;20004;-74
2023/02/06 02:31:19;;;;;;;0.82;0.40;;;2.90;91.00;;;;;;6227242;23;20020;-74
2023/02/06 02:34:02;;;;;;;0.30;0.28;;;2.90;91.00;;;;;;6223257;23;20365;-73
2023/02/06 02:36:41;;;;;;;0.30;0.20;;;2.90;91.00;;;;;;6249167;22;20403;-74
2023/02/06 02:39:19;;;;;;;1.23;0.38;;;2.90;91.00;;;;;;6219915;23;20087;-74
2023/02/06 02:42:24;;;;;;;0.65;0.30;;;3.00;91.00;;;;;;6221923;22;20008;-74
2023/02/06 02:44:58;;;;;;;0.32;0.22;;;3.00;91.30;;;;;;6219780;23;20012;-74
2023/02/06 02:47:29;;;;;;;0.35;0.20;;;3.00;90.90;;;;;;6221609;23;20011;-74
2023/02/06 02:49:57;;;;;;;1.02;0.30;;;3.00;90.90;;;;;;6196971;23;20064;-73
2023/02/06 02:52:22;;;;;;;0.47;0.30;;;3.00;90.90;;;;;;6249389;22;20016;-74
2023/02/06 02:54:48;;;;;;;0.32;0.20;;;3.00;90.90;;;;;;6249208;22;20015;-74
2023/02/06 02:57:21;;;;;;;0.40;0.20;;;3.00;90.90;;;;;;6222307;23;20062;-75
2023/02/06 02:59:49;;;;;;;0.73;0.30;;;3.10;91.00;;;;;;6222312;23;20062;-74
2023/02/06 03:02:21;;;;;;;0.65;0.30;;;3.10;91.00;;;;;;6248849;23;20031;-74
2023/02/06 03:04:48;;;;;;;;;;;3.10;91.00;;;;;;6222027;23;20004;-74
2023/02/06 03:07:31;;;;;;;0.20;0.20;;;3.10;91.00;;;;;;6248280;22;19922;-74
2023/02/06 03:10:25;;;;;;;0.63;0.30;;;3.10;90.90;;;;;;6222151;23;20031;-73
2023/02/06 03:13:16;;;;;;;0.10;0.10;;;3.10;91.00;;;;;;6203303;23;20037;-74
2023/02/06 03:15:58;;;;;;;1.27;0.20;;;3.10;91.00;;;;;;6228824;23;20119;-74
2023/02/06 03:18:34;;;;;;;0.65;0.20;;;3.10;90.90;;;;;;6222205;23;20522;-74
2023/02/06 03:21:03;;;;;;;1.35;0.30;;;3.30;91.00;;;;;;6248779;23;20012;-73
2023/02/06 03:23:31;;;;;;;1.90;0.35;;;3.10;90.90;;;;;;6222436;23;20004;-74
2023/02/06 03:26:01;;;;;;;0.45;0.20;;;3.10;91.00;;;;;;6249305;22;20000;-74
2023/02/06 03:28:32;;;;;;;1.42;0.47;;;3.20;91.00;;;;;;6221997;23;20019;-74
2023/02/06 03:31:01;;;;;;;0.97;0.27;;;3.20;91.00;;;;;;6248214;23;20015;-73
2023/02/06 03:33:32;;;;;;;0.43;0.22;;;3.30;91.00;;;;;;6222014;23;20247;-74
2023/02/06 03:35:59;;;;;;;0.57;0.28;;;3.20;91.00;;;;;;6196486;23;20344;-74
2023/02/06 03:38:27;;;;;;;0.45;0.20;;;3.20;91.00;;;;;;6221581;23;20019;-74
2023/02/06 03:40:54;;;;;;;1.00;0.20;;;3.20;91.00;;;;;;6191070;23;20318;-73
2023/02/06 03:43:23;;;;;;;1.45;0.30;;;3.20;91.00;;;;;;6247824;22;20059;-74
2023/02/06 03:45:53;;;;;;;0.25;0.17;;;3.20;91.30;;;;;;6220668;23;20004;-74
2023/02/06 03:48:26;;;;;;;0.43;0.30;;;3.20;91.10;;;;;;6220414;23;20012;-73
2023/02/06 03:50:55;;;;;;;0.35;0.20;;;3.10;91.10;;;;;;6221225;23;20005;-74
2023/02/06 03:53:22;;;;;;;0.65;0.30;;;3.10;91.10;;;;;;6248745;22;20010;-73
2023/02/06 03:55:52;;;;;;;0.90;0.30;;;3.10;91.10;;;;;;6195179;23;20015;-74
2023/02/06 03:58:18;;;;;;;0.65;0.20;;;3.00;91.20;;;;;;6246953;22;20375;-74
2023/02/06 04:00:45;;;;;;;1.88;0.40;;;3.00;91.20;;;;;;6247741;22;20004;-74
2023/02/06 04:03:12;;;;;;;0.98;0.45;;;3.00;91.30;;;;;;6220961;23;20012;-73
2023/02/06 04:05:39;;;;;;;0.88;0.40;;;2.90;91.30;;;;;;6252610;22;20004;-74
2023/02/06 04:08:05;;;;;;;0.20;0.20;;;2.90;91.30;;;;;;6238225;23;20019;-74
2023/02/06 04:10:30;;;;;;;2.08;0.50;;;2.90;91.40;;;;;;6264018;22;20031;-74
2023/02/06 04:12:56;;;;;;;1.17;0.30;;;2.80;91.40;;;;;;6259216;22;20014;-74
2023/02/06 04:15:22;;;;;;;0.15;0.15;;;2.80;91.40;;;;;;6262086;22;20008;-74
2023/02/06 04:17:48;;;;;;;0.43;0.20;;;2.80;91.50;;;;;;6205568;23;20040;-74
2023/02/06 04:20:14;;;;;;;0.55;0.30;;;2.80;91.50;;;;;;6257634;22;20008;-74
2023/02/06 04:22:40;;;;;;;0.50;0.22;;;2.80;91.50;;;;;;6230358;23;20516;-74
2023/02/06 04:25:06;;;;;;;0.60;0.30;;;2.80;91.50;;;;;;6256985;22;20004;-74
2023/02/06 04:27:32;;;;;;;1.58;0.43;;;2.80;91.50;;;;;;6230348;23;20012;-74
2023/02/06 04:29:58;;;;;;;0.60;0.20;;;2.80;91.50;;;;;;6256736;22;20031;-74
2023/02/06 04:32:23;;;;;;;1.55;0.30;;;2.70;91.40;;;;;;6205970;23;20432;-74
2023/02/06 04:34:49;;;;;;;0.20;0.20;;;2.70;91.50;;;;;;6231104;23;20012;-74
2023/02/06 04:37:15;;;;;;;0.63;0.40;;;2.70;91.60;;;;;;6257985;22;20008;-73
2023/02/06 04:39:40;;;;;;;0.35;0.30;;;2.60;91.60;;;;;;6256981;22;20015;-74
2023/02/06 04:42:06;;;;;;;0.77;0.20;;;2.60;91.60;;;;;;6256211;22;20012;-74
2023/02/06 04:44:32;;;;;;;0.70;0.32;;;2.60;91.60;;;;;;6256244;23;20006;-74
2023/02/06 04:46:59;;;;;;;0.25;0.20;;;2.60;91.60;;;;;;6229299;23;20024;-73
2023/02/06 04:49:25;;;;;;;0.60;0.20;;;2.60;91.60;;;;;;6256753;22;20019;-74
2023/02/06 04:51:50;;;;;;;0.08;0.08;;;2.60;91.60;;;;;;6205132;23;20012;-74
2023/02/06 04:54:17;;;;;;;1.77;0.30;;;2.60;91.60;;;;;;6255113;22;20019;-74
2023/02/06 04:56:44;;;;;;;0.88;0.15;;;2.60;91.60;;;;;;6260205;22;20008;-74
2023/02/06 04:59:09;;;;;;;2.05;0.30;;;2.60;91.60;;;;;;6229284;23;20032;-74
2023/02/06 05:01:35;;;;;;;0.28;0.17;;;2.50;91.60;;;;;;6228884;23;20008;-74
2023/02/06 05:04:01;;;;;;;0.63;0.13;;;2.40;91.60;;;;;;6256491;23;20000;-74
2023/02/06 05:06:28;;;;;;;0.57;0.40;;;2.50;91.70;;;;;;6255287;22;20036;-75
2023/02/06 05:08:54;;;;;;;0.43;0.20;;;2.40;91.70;;;;;;6256281;22;20068;-74
2023/02/06 05:11:20;;;;;;;0.82;0.30;;;2.50;91.70;;;;;;6257830;23;20011;-74
2023/02/06 05:13:45;;;;;;;0.40;0.20;;;2.50;91.70;;;;;;6258031;23;20024;-74
2023/02/06 05:16:13;;;;;;;0.20;0.13;;;2.50;91.60;;;;;;6181644;23;20012;-75
2023/02/06 05:18:41;;;;;;;0.25;0.20;;;2.50;91.60;;;;;;6230339;22;20066;-74
2023/02/06 05:21:07;;;;;;;0.10;0.10;;;2.40;91.60;;;;;;6205773;22;20039;-75
2023/02/06 05:23:32;;;;;;;0.20;0.20;;;2.40;91.60;;;;;;6228197;23;20027;-74
2023/02/06 05:25:59;;;;;;;0.35;0.22;;;2.40;91.60;;;;;;6230650;23;20004;-74
2023/02/06 05:28:26;;;;;;;0.70;0.40;;;2.40;91.60;;;;;;6231539;23;20004;-74
2023/02/06 05:30:52;;;;;;;0.60;0.30;;;2.30;91.70;;;;;;6181068;23;20000;-74
2023/02/06 05:33:18;;;;;;;0.35;0.20;;;2.30;91.70;;;;;;6230120;23;20019;-73
2023/02/06 05:35:44;;;;;;;0.47;0.22;;;2.30;91.70;;;;;;6230431;23;20015;-74
2023/02/06 05:38:11;;;;;;;0.77;0.20;;;2.30;91.90;;;;;;6257330;22;20047;-74
2023/02/06 05:40:36;;;;;;;0.20;0.20;;;2.30;91.60;;;;;;6202441;23;20016;-73
2023/02/06 05:43:02;;;;;;;1.23;0.52;;;2.30;91.70;;;;;;6230148;23;20020;-74
2023/02/06 05:45:28;;;;;;;0.90;0.30;;;2.30;91.70;;;;;;6229678;23;20107;-74
2023/02/06 05:47:54;;;;;;;0.32;0.25;;;2.30;91.70;;;;;;6196104;23;20087;-74
2023/02/06 05:50:20;;;;;;;0.30;0.20;;;2.20;91.70;;;;;;6190285;23;20020;-74
2023/02/06 05:52:46;;;;;;;1.83;0.22;;;2.30;91.70;;;;;;6218089;23;20035;-74
2023/02/06 05:55:12;;;;;;;0.10;0.10;;;2.30;91.70;;;;;;6245342;22;20079;-74
2023/02/06 05:57:38;;;;;;;0.75;0.20;;;2.30;91.90;;;;;;6245127;22;20004;-74
2023/02/06 06:00:05;;;;;;;2.38;0.22;;;2.30;91.70;;;;;;6244853;22;20012;-75
2023/02/06 06:02:31;;;;;;;0.20;0.20;;;2.20;91.60;;;;;;6245367;23;20016;-74
2023/02/06 06:04:56;;;;;;;0.10;0.10;;;2.20;91.70;;;;;;6245387;22;20004;-74
2023/02/06 06:07:22;;;;;;;0.20;0.20;;;2.10;91.70;;;;;;6218869;23;20050;-74
2023/02/06 06:09:48;;;;;;;1.02;0.40;;;2.10;91.70;;;;;;6217864;23;20012;-75
2023/02/06 06:12:14;;;;;;;0.85;0.57;;;2.20;91.80;;;;;;6245613;23;20329;-74
2023/02/06 06:14:40;;;;;;;0.28;0.17;;;2.30;91.80;;;;;;6216383;23;20410;-74
2023/02/06 06:17:06;;;;;;;0.75;0.30;;;2.10;91.70;;;;;;6192897;23;20012;-74
2023/02/06 06:19:32;;;;;;;0.20;0.20;;;2.20;91.70;;;;;;6245144;23;20008;-74
2023/02/06 06:21:57;;;;;;;0.52;0.20;;;2.10;91.70;;;;;;6192911;23;20011;-74
2023/02/06 06:24:23;;;;;;;0.43;0.20;;;2.10;91.70;;;;;;6244760;22;20004;-74
2023/02/06 06:26:49;;;;;;;0.43;0.30;;;2.10;91.70;;;;;;6218674;23;20049;-74
2023/02/06 06:29:15;;;;;;;0.47;0.20;;;2.10;91.80;;;;;;6244565;22;20008;-74
2023/02/06 06:31:40;;;;;;;0.20;0.20;;;2.10;91.80;;;;;;6192739;23;20012;-74
2023/02/06 06:34:06;;;;;;;0.63;0.20;;;2.10;91.70;;;;;;6217549;23;20011;-74
2023/02/06 06:36:32;;;;;;;0.38;0.10;;;2.10;91.70;;;;;;6244517;23;20011;-73
2023/02/06 06:38:57;;;;;;;0.28;0.20;;;2.10;91.70;;;;;;6245185;23;20310;-74
2023/02/06 06:41:23;;;;;;;1.17;0.30;;;2.10;91.70;;;;;;6244722;22;20369;-74
2023/02/06 06:43:48;;;;;;;0.55;0.13;;;2.10;91.70;;;;;;6218228;22;20379;-75
2023/02/06 06:46:14;;;;;;;0.20;0.20;;;2.10;91.70;;;;;;6244971;22;20008;-74
2023/02/06 06:48:40;;;;;;;0.47;0.20;;;2.00;91.60;;;;;;6215290;23;20031;-74
2023/02/06 06:51:05;;;;;;;0.50;0.35;;;2.10;91.70;;;;;;6244975;22;20049;-74
2023/02/06 06:53:31;;;;;;;0.20;0.20;;;2.20;91.70;;;;;;6244623;23;20054;-74
2023/02/06 06:56:05;;;;;;;0.43;0.10;;;2.20;91.70;;;;;;6215305;23;20009;-74
2023/02/06 06:58:31;;;;;;;0.10;0.10;;;2.20;91.70;;;;;;6245186;22;20012;-74
2023/02/06 07:00:57;;;;;;;0.68;0.30;;;2.20;91.60;;;;;;6244847;22;20306;-73
2023/02/06 07:03:22;;;;;;;0.57;0.40;;;2.30;91.60;;;;;;6244524;22;20008;-74
2023/02/06 07:05:48;;;;;;;0.75;0.20;;;2.30;91.60;;;;;;6217604;23;20073;-74
2023/02/06 07:08:13;;;;;;;0.20;0.20;;;2.40;91.60;;;;;;6217789;23;20004;-73
2023/02/06 07:10:39;;;;;;;0.45;0.20;;;2.40;91.50;;;;;;6244711;22;20019;-73
2023/02/06 07:13:05;;;;;;;1.35;0.30;;;2.40;91.50;;;;;;6244256;23;20395;-73
2023/02/06 07:15:31;;;;;;;0.32;0.20;;;2.40;91.50;;;;;;6217397;23;20012;-73
2023/02/06 07:17:56;;;;;;;0.75;0.20;;;2.50;91.50;;;;;;6244484;22;20016;-74
2023/02/06 07:20:22;;;;;;;0.25;0.20;;;2.50;91.50;;;;;;6216677;23;20012;-74
2023/02/06 07:22:49;;;;;;;0.60;0.20;;;2.50;91.50;;;;;;6244265;22;20008;-74
2023/02/06 07:25:16;;;;;;;0.55;0.40;;;2.60;91.50;;;;;;6214744;23;20108;-74
2023/02/06 07:27:41;;;;;;;0.47;0.30;;;2.60;91.40;;;;;;6217717;23;20035;-73
2023/02/06 07:30:08;;;;;;;0.82;0.25;;;2.70;91.40;;;;;;6244486;22;20012;-74
2023/02/06 07:32:35;;;;;;;0.20;0.20;;;2.70;91.40;;;;;;6243913;22;20492;-74
2023/02/06 07:35:01;;;;;;;0.63;0.30;;;2.80;91.40;;;;;;6244203;23;20012;-74
2023/02/06 07:37:27;;;;;;;0.20;0.20;;;2.80;91.40;;;;;;6244562;22;20032;-74
2023/02/06 07:39:53;;;;;;;1.30;0.25;;;2.90;91.40;;;;;;6244416;23;20062;-73
2023/02/06 07:42:18;;;;;;;0.98;0.50;;;2.90;91.30;;;;;;6244749;22;20058;-74
2023/02/06 07:44:44;;;;;;;0.30;0.30;;;2.90;91.30;;;;;;6192618;23;20029;-73
2023/02/06 07:47:10;;;;;;;0.52;0.20;;;3.00;91.30;;;;;;6244696;22;20008;-74
2023/02/06 07:49:35;;;;;;;0.20;0.20;;;3.00;91.30;;;;;;6192905;23;20012;-74
2023/02/06 07:52:01;;;;;;;0.28;0.20;;;3.00;91.30;;;;;;6189542;23;20012;-74
2023/02/06 07:54:27;;;;;;;0.85;0.25;;;3.00;91.30;;;;;;6244216;22;20101;-74
2023/02/06 07:56:53;;;;;;;0.45;0.25;;;3.10;91.30;;;;;;6217397;23;20012;-76
2023/02/06 07:59:18;;;;;;;0.13;0.13;;;3.20;91.30;;;;;;6243834;23;20019;-75
2023/02/06 08:01:46;;;;;;;0.30;0.20;;;3.20;91.30;;;;;;6217885;23;20012;-75
2023/02/06 08:04:12;;;;;;;0.40;0.20;;;3.20;91.30;;;;;;6191495;23;20008;-74
2023/02/06 08:06:41;;;;;;;0.10;0.10;;;3.30;91.30;;;;;;6244124;22;20000;-74
2023/02/06 08:09:09;;;;;;;0.13;0.13;;;3.40;91.40;;;;;;6215227;23;20332;-75
2023/02/06 08:11:35;;;;;;;0.10;0.10;;;3.30;91.30;;;;;;6168066;23;20098;-75
2023/02/06 08:14:01;;;;;;;0.13;0.13;;;3.30;91.30;;;;;;6166705;23;20057;-75
2023/02/06 08:16:27;;;;;;;0.15;0.15;;;3.30;91.30;;;;;;6216990;22;20016;-75
2023/02/06 08:18:55;;;;;;;0.10;0.10;;;3.40;91.30;;;;;;6216919;22;20039;-76
2023/02/06 08:21:23;;;;;;;0.32;0.10;;;3.40;91.30;;;;;;6167671;23;20012;-75
2023/02/06 08:23:57;;;;;;;0.17;0.10;;;3.50;91.30;;;;;;6191871;23;20042;-75
2023/02/06 08:26:25;;;;;;;0.20;0.20;;;3.50;91.30;;;;;;6165292;23;20059;-75
2023/02/06 08:28:52;;;;;;;0.50;0.20;;;3.60;91.30;;;;;;6167846;23;20106;-76
2023/02/06 08:31:21;;;;;;;0.30;0.30;;;3.60;91.20;;;;;;6192224;22;20062;-76
2023/02/06 08:33:47;;;;;;;0.17;0.17;;;3.60;91.20;;;;;;6191790;22;20085;-75
2023/02/06 08:36:14;;;;;;;0.20;0.20;;;3.80;91.30;;;;;;6165854;22;20395;-75
2023/02/06 08:38:40;;;;;;;0.38;0.38;;;3.70;91.20;;;;;;6192250;23;20018;-75
2023/02/06 08:41:17;;;;;;;0.20;0.20;;;3.70;91.20;;;;;;6244287;23;20028;-75
2023/02/06 08:43:45;;;;;;;0.38;0.20;;;3.90;91.30;;;;;;6191705;22;20000;-75
2023/02/06 08:46:11;;;;;;;0.73;0.30;;;3.90;91.20;;;;;;6149101;23;20013;-76
2023/02/06 08:48:47;;;;;;;0.43;0.20;;;3.90;91.20;;;;;;6098639;23;20478;-75
2023/02/06 08:51:14;;;;;;;0.57;0.20;;;3.90;91.20;;;;;;6102802;23;20014;-75
2023/02/06 08:53:40;;;;;;;0.40;0.22;;;4.00;91.20;;;;;;6053365;23;20065;-75
2023/02/06 08:56:10;;;;;;;0.55;0.30;;;4.10;91.20;;;;;;6123331;23;20017;-75
2023/02/06 08:58:37;;;;;;;0.40;0.30;;;4.20;91.20;;;;;;6075116;23;20037;-74
2023/02/06 09:01:13;;;;;;;1.25;0.40;;;4.20;91.20;;;;;;6074678;23;20109;-74
2023/02/06 09:03:40;;;;;;;0.65;0.20;;;4.30;91.10;;;;;;6074960;23;20010;-74
2023/02/06 09:06:06;;;;;;;0.25;0.22;;;4.30;91.10;;;;;;6074996;23;20125;-74
2023/02/06 09:08:32;;;;;;;0.30;0.30;;;4.40;91.10;;;;;;6123031;23;20017;-75
2023/02/06 09:11:16;;;;;;;1.13;0.45;;;4.50;91.10;;;;;;6098578;23;20022;-75
2023/02/06 09:13:43;;;;;;;0.85;0.52;;;4.70;91.10;;;;;;6077229;23;20374;-75
2023/02/06 09:16:10;;;;;;;0.88;0.30;;;4.70;91.00;;;;;;6132569;23;20013;-75
2023/02/06 09:18:36;;;;;;;0.43;0.30;;;4.70;91.00;;;;;;6193294;23;20012;-75
2023/02/06 09:21:06;;;;;;;1.20;0.38;;;4.80;90.90;;;;;;6245288;23;20012;-75
2023/02/06 09:23:31;;;;;;;2.50;0.55;;;4.90;90.90;;;;;;6193694;23;20031;-76
2023/02/06 09:25:59;;;;;;;1.40;0.30;;;5.00;90.90;;;;;;6165883;23;20011;-76
2023/02/06 09:28:25;;;;;;;1.27;0.28;;;5.10;90.80;;;;;;6193306;23;20428;-74
2023/02/06 09:30:50;;;;;;;0.13;0.13;;;5.10;90.80;;;;;;6217284;23;20020;-74
2023/02/06 09:33:16;;;;;;;0.95;0.40;;;5.40;90.90;;;;;;6218088;23;20032;-76
2023/02/06 09:35:44;;;;;;;0.75;0.30;;;5.20;90.80;;;;;;6192776;23;20018;-77
2023/02/06 09:38:09;;;;;;;1.17;0.40;;;5.40;90.80;;;;;;6193095;23;20012;-76
2023/02/06 09:40:36;;;;;;;0.20;0.20;;;5.50;90.80;;;;;;6245057;22;20386;-75
2023/02/06 09:43:02;;;;;;;0.80;0.32;;;5.50;90.80;;;;;;6218134;23;20007;-76
2023/02/06 09:45:31;;;;;;;0.73;0.30;;;5.70;90.80;;;;;;6215357;23;20000;-77
2023/02/06 09:48:05;;;;;;;1.20;0.20;;;5.70;90.70;;;;;;6193618;23;20008;-77
2023/02/06 09:50:50;;;;;;;1.17;0.40;;;5.80;90.70;;;;;;6245288;22;20340;-77
2023/02/06 09:53:32;;;;;;;1.00;0.40;;;5.90;90.70;;;;;;6167279;23;20345;-77
2023/02/06 09:56:14;;;;;;;0.70;0.38;;;6.00;90.60;;;;;;6196457;23;20044;-77
2023/02/06 09:58:47;;;;;;;;;;;6.10;90.60;;;;;;6196118;23;20020;-75
2023/02/06 10:01:33;;;;;;;0.75;0.30;;;6.10;90.50;;;;;;6217966;23;19907;-75
2023/02/06 10:04:26;;;;;;;0.63;0.50;;;6.20;90.40;;;;;;6217934;22;20012;-76
2023/02/06 10:07:03;;;;;;;0.85;0.40;;;6.30;90.40;;;;;;6216733;23;20096;-76
2023/02/06 10:09:57;;;;;;;1.15;0.60;;;6.30;90.40;;;;;;6170650;23;20008;-77
2023/02/06 10:12:30;;;;;;;3.25;0.50;;;6.40;90.40;;;;;;6188067;22;20008;-75
2023/02/06 10:15:03;;;;;;;0.90;0.57;;;6.50;90.40;;;;;;6194049;23;20034;-75
2023/02/06 10:17:34;;;;;;;1.05;0.50;;;6.40;90.40;;;;;;6168517;23;20011;-75
2023/02/06 10:20:09;;;;;;;1.63;0.40;;;6.50;90.40;;;;;;6194392;22;20429;-76
2023/02/06 10:22:46;;;;;;;1.52;0.50;;;6.60;90.40;;;;;;6194402;22;20004;-76
2023/02/06 10:25:23;;;;;;;0.98;0.52;;;6.60;90.40;;;;;;6216713;23;20151;-76
2023/02/06 10:27:55;;;;;;;3.88;0.68;;;6.70;90.40;;;;;;6219466;23;20008;-76
2023/02/06 10:30:44;;;;;;;2.20;0.57;;;6.80;90.30;;;;;;6190439;23;20361;-76
2023/02/06 10:33:19;;;;;;;1.05;0.40;;;6.80;90.30;;;;;;6219305;23;20086;-76
2023/02/06 10:36:21;;;;;;;0.63;0.40;;;6.80;90.30;;;;;;6244567;22;20026;-76
2023/02/06 10:39:10;;;;;;;0.40;0.30;;;7.00;90.40;;;;;;6222113;23;20082;-78
2023/02/06 10:41:51;;;;;;;0.28;0.22;;;7.10;90.30;;;;;;6215597;23;20092;-77
2023/02/06 10:44:34;;;;;;;0.85;0.40;;;7.20;90.20;;;;;;6194232;23;20008;-77
2023/02/06 10:47:05;;;;;;;0.20;0.20;;;7.20;90.20;;;;;;6192893;23;20142;-76
2023/02/06 10:49:36;;;;;;;1.80;0.40;;;7.30;90.10;;;;;;6193409;23;20053;-76
2023/02/06 10:52:10;;;;;;;;;;;7.40;90.00;;;;;;6168684;23;20022;-75
2023/02/06 10:54:40;;;;;;;1.08;0.30;;;7.40;90.00;;;;;;6192771;23;19923;-75
2023/02/06 10:57:18;;;;;;;0.85;0.40;;;7.40;90.00;;;;;;6132549;23;20020;-75
2023/02/06 10:59:47;;;;;;;0.43;0.30;;;7.50;90.10;;;;;;6156768;23;20020;-77
2023/02/06 11:02:43;;;;;;;0.82;0.40;;;7.50;90.10;;;;;;6132541;23;20017;-76
2023/02/06 11:05:16;;;;;;;1.05;0.50;;;7.60;90.10;;;;;;6160391;23;20052;-77
2023/02/06 11:07:49;;;;;;;1.00;0.40;;;7.50;90.00;;;;;;6129818;23;20017;-77
2023/02/06 11:10:45;;;;;;;0.20;0.20;;;7.70;90.00;;;;;;6133179;23;20445;-78
2023/02/06 11:13:40;;;;;;;1.48;0.43;;;7.80;90.00;;;;;;6082200;23;20018;-77
2023/02/06 11:16:53;;;;;;;1.10;0.40;;;7.80;90.10;;;;;;6126483;23;20036;-77
2023/02/06 11:19:43;;;;;;;0.60;0.20;;;7.80;90.00;;;;;;6040571;23;20010;-78
2023/02/06 11:22:31;;;;;;;0.98;0.45;;;7.80;90.00;;;;;;5992127;23;20479;-77
2023/02/06 11:25:19;;;;;;;1.48;0.30;;;7.80;89.90;;;;;;6049391;23;20468;-77
2023/02/06 11:27:49;;;;;;;1.55;0.55;;;8.00;89.90;;;;;;6044091;23;20447;-77
2023/02/06 11:30:33;;;;;;;0.52;0.30;;;7.90;90.00;;;;;;6041106;23;20030;-76
2023/02/06 11:33:20;;;;;;;0.15;0.15;;;8.00;89.90;;;;;;6038414;23;20162;-77
2023/02/06 11:35:53;;;;;;;0.65;0.35;;;7.90;89.80;;;;;;6011181;23;20045;-76
2023/02/06 11:38:24;;;;;;;0.93;0.60;;;8.00;90.00;;;;;;6010703;23;20091;-77
2023/02/06 11:41:06;;;;;;;0.85;0.30;;;8.00;89.90;;;;;;6006074;23;20128;-76
2023/02/06 11:43:53;;;;;;;;;;;7.90;90.00;;;;;;5999765;23;20472;-76
2023/02/06 11:46:25;;;;;;;1.40;0.38;;;7.90;90.00;;;;;;5982498;23;20313;-76
2023/02/06 11:49:32;;;;;;;2.05;0.43;;;8.10;90.00;;;;;;5978119;23;20505;-76
2023/02/06 11:51:59;;;;;;;0.70;0.40;;;8.00;89.80;;;;;;5983061;23;20110;-76
2023/02/06 11:54:28;;;;;;;0.85;0.40;;;8.10;89.70;;;;;;5960372;23;20030;-75
2023/02/06 11:57:15;;;;;;;0.40;0.30;;;8.10;89.70;;;;;;5960728;23;20011;-75
2023/02/06 11:59:52;;;;;;;1.25;0.30;;;8.10;89.80;;;;;;6099892;23;20435;-77
2023/02/06 12:02:27;;;;;;;0.90;0.25;;;8.00;89.80;;;;;;6098260;23;20006;-76
2023/02/06 12:05:05;;;;;;;1.33;0.43;;;8.10;89.80;;;;;;6097555;23;20010;-77
2023/02/06 12:07:36;;;;;;;1.15;0.57;;;8.10;89.80;;;;;;6111410;23;20006;-74
2023/02/06 12:10:09;;;;;;;2.50;0.50;;;8.10;89.60;;;;;;6205605;23;20015;-74
2023/02/06 12:12:48;;;;;;;0.90;0.30;;;8.10;89.60;;;;;;6213873;23;20333;-76
2023/02/06 12:15:38;;;;;;;1.38;0.52;;;8.00;89.60;;;;;;6216533;23;20015;-75
2023/02/06 12:18:19;;;;;;;1.17;0.30;;;8.00;89.70;;;;;;6171487;23;20460;-75
2023/02/06 12:20:51;;;;;;;;;;;8.10;89.70;;;;;;6191538;23;20020;-74
2023/02/06 12:23:33;;;;;;;3.22;0.50;;;8.10;89.60;;;;;;6218337;23;20290;-74
2023/02/06 12:26:02;;;;;;;1.98;0.30;;;8.20;89.50;;;;;;6219057;23;19997;-73
2023/02/06 12:28:35;;;;;;;0.50;0.40;;;8.30;89.30;;;;;;6169068;23;20039;-73
2023/02/06 12:31:09;;;;;;;1.75;0.32;;;8.30;89.10;;;;;;6218643;23;20008;-73
2023/02/06 12:33:42;;;;;;;1.48;0.40;;;8.60;89.10;;;;;;6220486;23;20062;-73
2023/02/06 12:36:35;;;;;;;1.25;0.38;;;8.50;88.90;;;;;;6195069;23;20014;-73
2023/02/06 12:39:06;;;;;;;0.45;0.30;;;8.50;88.60;;;;;;6221065;23;20089;-73
2023/02/06 12:42:02;;;;;;;0.60;0.40;;;8.60;88.60;;;;;;6191230;23;20004;-73
2023/02/06 12:44:36;;;;;;;0.55;0.20;;;8.60;88.50;;;;;;6222654;23;20008;-74
2023/02/06 12:47:27;;;;;;;1.13;0.30;;;8.50;88.60;;;;;;6245206;23;20007;-74
2023/02/06 12:50:19;;;;;;;0.50;0.15;;;8.50;89.40;;;;;;6245521;23;20011;-75
2023/02/06 12:52:52;;;;;;;0.45;0.30;;;8.50;88.80;;;;;;6244754;22;20001;-74
2023/02/06 12:55:38;;;;;;;0.35;0.15;;;8.50;88.80;;;;;;6193054;23;20000;-74
2023/02/06 12:58:19;;;;;;;0.28;0.20;;;8.60;88.90;;;;;;6216178;23;20080;-74
2023/02/06 13:01:03;;;;;;;1.02;0.30;;;8.70;88.80;;;;;;6218089;23;20012;-73
2023/02/06 13:03:38;;;;;;;0.93;0.32;;;8.90;88.40;;;;;;6190849;23;20028;-74
2023/02/06 13:06:21;;;;;;;2.10;0.40;;;9.00;88.10;;;;;;6169830;23;20008;-74
2023/02/06 13:08:55;;;;;;;0.10;0.10;;;9.10;87.70;;;;;;6193224;23;20001;-74
2023/02/06 13:11:27;;;;;;;0.45;0.20;;;9.00;87.60;;;;;;6169370;22;20365;-74
2023/02/06 13:14:18;;;;;;;0.30;0.10;;;9.00;87.70;;;;;;6217974;22;20105;-75
2023/02/06 13:16:53;;;;;;;1.03;0.20;;;9.00;87.80;;;;;;6217921;23;20012;-74
2023/02/06 13:19:23;;;;;;;0.38;0.25;;;9.00;87.90;;;;;;6216401;23;20040;-74